Andalusia, PA

12:19 AM EDT on August 31, 2014 (GMT -0400)
Croydon | Change Station
CLOSE
Current Station
Personal Weather Station
Location: Croydon, PA
Elevation: 36 ft
Nearby Weather Stations

Elev 36 ft 40.09 °N, 74.90 °W | Updated 1 second ago

Scattered Clouds
Scattered Clouds
71.4 °F
Feels Like 74 °F
N
0.0
Wind Variable Wind from North
Gusts 0.0 mph

Today
High -- | Low -- °F
--% Chance of Precip.
Yesterday
High -- | Low -- °F
Precip. -- in
6:26 AM 7:32 PM
Waxing Crescent, 27% visible
Pressure 30.18 in
Visibility 10.0 miles
Clouds Scattered Clouds 3500 ft
Heat Index 74 °F
Dew Point 62 °F
Humidity 72%
Rainfall 0.00 in
Snow Depth Not available.
UV 0.0 out of 12
Pollen 9.40 out of 12
Air Quality Not available.
Flu Activity Not available.
METAR KPNE 310354Z AUTO 21003KT 10SM SCT035 23/15 A3018 RMK AO2 SLP218 T02330150 TSNO

More Conditions Fewer Conditions

Pressure 30.18 in
Visibility 10.0 miles
Clouds Scattered Clouds 3500 ft
Heat Index 74 °F
Dew Point 62 °F
Humidity 72%
Rainfall 0.00 in
Snow Depth Not available.
UV 0.0 out of 12
Pollen 9.40 out of 12
Air Quality Not available.
Flu Activity Not available.
METAR KPNE 310354Z AUTO 21003KT 10SM SCT035 23/15 A3018 RMK AO2 SLP218 T02330150 TSNO

More Conditions Fewer Conditions

10-Day Weather Forecast

Almanac

Astronomy

Aug. 31, 2014 Rise Set
Actual Time 6:26 AM EDT 7:32 PM EDT
Civil Twilight 5:58 AM EDT 8:00 PM EDT
Nautical Twilight 5:25 AM EDT 8:33 PM EDT
Astronomical Twilight 4:50 AM EDT 9:08 PM EDT
Moon 12:10 PM EDT 10:45 PM EDT
Length of Visible Light 14h 02m
Length of Day
13h 06m
Tomorrow will be 2m 32s shorter.
Waxing Crescent, 27% of the Moon is Illuminated
Today
Waxing Crescent
Sep 2
First Quarter
Sep 8
Full
Sep 15
Last Quarter
Sep 24
New

Yesterday's Extremes

State Highs State Lows

Community

WunderPhotos

Upload Photos

1,748,779 photos uploaded!

Nearby

Snow Depth

Station Depth Elevation
No new snow has been reported.

Earthquake Activity

City Distance Mag. Time & Date
No recent earthquake activity has been reported nearby.
Minimum magnitude displayed is 2.5.

Coastal Water Temperatures

Place Temperature
No Stations Reporting

Nearby Weather Stations